createdAt,value
2018-04-02T00:00:46.394Z,89.00
2018-04-02T00:03:14.684Z,89.20
2018-04-02T00:05:43.008Z,89.40
2018-04-02T00:08:11.316Z,89.40
2018-04-02T00:10:39.644Z,89.50
2018-04-02T00:13:07.933Z,89.50
2018-04-02T00:15:36.276Z,89.50
2018-04-02T00:18:04.581Z,89.60
2018-04-02T00:20:32.892Z,89.60
2018-04-02T00:23:01.184Z,89.60
2018-04-02T00:25:29.520Z,89.60
2018-04-02T00:27:57.812Z,89.50
2018-04-02T00:30:26.124Z,89.70
2018-04-02T00:32:54.420Z,89.70
2018-04-02T00:35:22.733Z,89.80
2018-04-02T00:37:51.037Z,89.80
2018-04-02T00:40:19.363Z,90.00
2018-04-02T00:42:46.892Z,90.00
2018-04-02T00:45:15.200Z,90.00
2018-04-02T00:47:42.728Z,89.90
2018-04-02T00:50:11.060Z,89.90
2018-04-02T00:52:39.352Z,90.00
2018-04-02T00:55:07.669Z,89.80
2018-04-02T00:57:35.961Z,89.80
2018-04-02T01:00:04.248Z,89.70
2018-04-02T01:02:32.561Z,89.90
2018-04-02T01:05:00.089Z,89.90
2018-04-02T01:07:28.404Z,90.00
2018-04-02T01:09:56.692Z,90.00
2018-04-02T01:12:25.016Z,90.00
2018-04-02T01:14:53.313Z,90.10
2018-04-02T01:17:21.632Z,90.20
2018-04-02T01:19:49.944Z,90.30
2018-04-02T01:22:18.260Z,90.30
2018-04-02T01:24:46.561Z,90.30
2018-04-02T01:27:14.878Z,90.20
2018-04-02T01:29:43.177Z,90.10
2018-04-02T01:32:11.489Z,90.20
2018-04-02T01:34:39.788Z,90.20
2018-04-02T01:37:08.099Z,90.30
2018-04-02T01:39:36.396Z,90.20
2018-04-02T01:42:03.954Z,90.20
2018-04-02T01:44:32.252Z,90.20
2018-04-02T01:47:00.592Z,90.20
2018-04-02T01:49:28.884Z,90.30
2018-04-02T01:51:57.204Z,90.40
2018-04-02T01:54:25.500Z,90.40
2018-04-02T01:56:53.861Z,90.40
2018-04-02T01:59:22.128Z,90.40
2018-04-02T02:01:50.449Z,90.40
2018-04-02T02:04:18.736Z,90.40
2018-04-02T02:06:47.072Z,90.40
2018-04-02T02:09:15.376Z,90.50
2018-04-02T02:11:43.700Z,90.50
2018-04-02T02:14:12.004Z,90.50
2018-04-02T02:16:40.316Z,90.50
2018-04-02T02:19:08.609Z,90.60
2018-04-02T02:21:36.930Z,90.70
2018-04-02T02:24:05.224Z,90.70
2018-04-02T02:26:33.545Z,90.60
2018-04-02T02:29:01.838Z,90.60
2018-04-02T02:31:30.153Z,90.60
2018-04-02T02:33:58.444Z,90.50
2018-04-02T02:36:26.765Z,90.40
2018-04-02T02:38:55.057Z,90.40
2018-04-02T02:41:23.374Z,90.40
2018-04-02T02:43:51.671Z,90.40
2018-04-02T02:46:20.037Z,90.30
2018-04-02T02:48:48.358Z,90.30
2018-04-02T02:51:16.652Z,90.20
2018-04-02T02:53:44.981Z,90.20
2018-04-02T02:56:13.275Z,90.20
2018-04-02T02:58:41.594Z,90.10
2018-04-02T03:01:09.893Z,90.10
2018-04-02T03:03:38.215Z,90.10
2018-04-02T03:06:06.512Z,89.60
2018-04-02T03:08:34.829Z,90.10
2018-04-02T03:11:03.120Z,90.00
2018-04-02T03:13:31.428Z,90.00
2018-04-02T03:15:59.725Z,90.00
2018-04-02T03:18:28.038Z,90.00
2018-04-02T03:20:56.328Z,89.90
2018-04-02T03:23:24.639Z,89.90
2018-04-02T03:25:52.936Z,89.80
2018-04-02T03:28:21.248Z,89.80
2018-04-02T03:30:49.550Z,89.70
2018-04-02T03:33:17.869Z,89.70
2018-04-02T03:35:46.160Z,89.70
2018-04-02T03:38:14.477Z,89.70
2018-04-02T03:40:42.766Z,89.60
2018-04-02T03:43:11.080Z,89.60
2018-04-02T03:45:38.612Z,89.50
2018-04-02T03:48:06.931Z,89.60
2018-04-02T03:50:35.225Z,89.80
2018-04-02T03:53:03.538Z,89.80
2018-04-02T03:55:31.064Z,89.70
2018-04-02T03:57:59.379Z,89.80
2018-04-02T04:00:27.673Z,89.80
2018-04-02T04:02:55.988Z,89.70
2018-04-02T04:05:24.281Z,89.70
2018-04-02T04:07:51.832Z,89.70
2018-04-02T04:10:20.128Z,89.60
2018-04-02T04:12:48.442Z,89.50
2018-04-02T04:15:16.732Z,89.60
2018-04-02T04:17:45.049Z,89.70
2018-04-02T04:20:13.348Z,89.60
2018-04-02T04:22:41.694Z,89.60
2018-04-02T04:25:10.001Z,89.40
2018-04-02T04:27:38.300Z,89.40
2018-04-02T04:30:06.620Z,89.30
2018-04-02T04:32:34.908Z,89.30
2018-04-02T04:35:03.218Z,89.40
2018-04-02T04:37:31.508Z,89.50
2018-04-02T04:39:59.823Z,89.60
2018-04-02T04:42:28.113Z,89.60
2018-04-02T04:44:55.664Z,89.60
2018-04-02T04:47:23.952Z,89.80
2018-04-02T04:49:52.269Z,89.70
2018-04-02T04:52:20.561Z,89.60
2018-04-02T04:54:48.877Z,89.60
2018-04-02T04:57:17.171Z,89.50
2018-04-02T04:59:45.491Z,89.50
2018-04-02T05:02:13.790Z,89.60
2018-04-02T05:04:42.104Z,89.80
2018-04-02T05:07:10.396Z,89.90
2018-04-02T05:09:38.710Z,89.90
2018-04-02T05:12:07.006Z,89.90
2018-04-02T05:14:35.327Z,90.00
2018-04-02T05:17:03.619Z,90.00
2018-04-02T05:19:31.940Z,89.90
2018-04-02T05:22:00.233Z,90.00
2018-04-02T05:24:28.547Z,90.00
2018-04-02T05:26:56.840Z,89.90
2018-04-02T05:29:25.155Z,89.90
2018-04-02T05:31:53.452Z,89.70
2018-04-02T05:34:21.772Z,90.20
2018-04-02T05:36:50.068Z,89.70
2018-04-02T05:39:18.384Z,89.60
2018-04-02T05:41:46.680Z,89.60
2018-04-02T05:44:14.997Z,89.60
2018-04-02T05:46:43.296Z,89.20
2018-04-02T05:49:11.613Z,89.40
2018-04-02T05:51:39.904Z,89.40
2018-04-02T05:54:08.222Z,89.20
2018-04-02T05:56:35.743Z,89.20
2018-04-02T05:59:04.349Z,88.80
2018-04-02T06:01:32.673Z,88.80
2018-04-02T06:04:00.968Z,88.60
2018-04-02T06:06:29.286Z,88.40
2018-04-02T06:08:57.592Z,88.20
2018-04-02T06:11:25.917Z,87.80
2018-04-02T06:13:54.221Z,88.00
2018-04-02T06:16:22.542Z,86.80
2018-04-02T06:18:50.831Z,86.40
2018-04-02T06:21:19.158Z,86.10
2018-04-02T06:23:47.464Z,85.90
2018-04-02T06:26:15.793Z,86.60
2018-04-02T06:28:44.084Z,85.50
2018-04-02T06:31:12.407Z,85.60
2018-04-02T06:33:40.699Z,85.50
2018-04-02T06:36:09.017Z,85.50
2018-04-02T06:38:37.372Z,85.30
2018-04-02T06:41:05.684Z,85.30
2018-04-02T06:43:33.985Z,85.00
2018-04-02T06:46:02.304Z,85.30
2018-04-02T06:48:30.611Z,85.10
2018-04-02T06:50:58.933Z,85.10
2018-04-02T06:53:27.229Z,84.90
2018-04-02T06:55:55.544Z,84.50
2018-04-02T06:58:23.863Z,84.30
2018-04-02T07:00:52.199Z,84.00
2018-04-02T07:03:20.507Z,83.80
2018-04-02T07:05:48.837Z,83.70
2018-04-02T07:08:17.152Z,83.50
2018-04-02T07:10:45.482Z,83.40
2018-04-02T07:13:13.779Z,83.00
2018-04-02T07:15:42.101Z,81.70
2018-04-02T07:18:10.397Z,81.30
2018-04-02T07:20:38.712Z,80.90
2018-04-02T07:23:06.245Z,80.90
2018-04-02T07:25:34.576Z,80.50
2018-04-02T07:28:02.884Z,78.50
2018-04-02T07:30:31.214Z,77.70
2018-04-02T07:32:59.524Z,76.60
2018-04-02T07:35:27.852Z,75.70
2018-04-02T07:37:56.151Z,74.90
2018-04-02T07:40:24.487Z,74.40
2018-04-02T07:42:52.789Z,73.30
2018-04-02T07:45:21.092Z,71.90
2018-04-02T07:47:49.420Z,70.50
2018-04-02T07:50:17.729Z,70.00
2018-04-02T07:52:46.085Z,69.90
2018-04-02T07:55:14.393Z,69.40
2018-04-02T07:57:42.713Z,68.30
2018-04-02T08:00:11.376Z,67.00
2018-04-02T08:02:39.729Z,65.00
2018-04-02T08:05:08.036Z,64.50
2018-04-02T08:07:36.357Z,64.50
2018-04-02T08:10:04.648Z,63.90
2018-04-02T08:12:32.981Z,63.60
2018-04-02T08:15:01.292Z,63.00
2018-04-02T08:17:29.609Z,61.50
2018-04-02T08:19:57.909Z,61.30
2018-04-02T08:22:26.220Z,60.90
2018-04-02T08:24:54.519Z,60.90
2018-04-02T08:27:22.848Z,60.90
2018-04-02T08:29:51.152Z,60.40
2018-04-02T08:32:18.692Z,60.40
2018-04-02T08:34:46.989Z,60.20
2018-04-02T08:37:15.314Z,59.20
2018-04-02T08:39:43.613Z,58.10
2018-04-02T08:42:11.936Z,57.40
2018-04-02T08:44:40.255Z,57.30
2018-04-02T08:47:08.572Z,57.30
2018-04-02T08:49:36.868Z,57.40
2018-04-02T08:52:05.202Z,57.40
2018-04-02T08:54:33.534Z,57.70
2018-04-02T08:57:01.856Z,56.70
2018-04-02T08:59:30.181Z,56.60
2018-04-02T09:01:58.496Z,56.20
2018-04-02T09:04:26.789Z,55.40
2018-04-02T09:06:55.109Z,55.10
2018-04-02T09:09:23.420Z,54.80
2018-04-02T09:11:51.736Z,54.40
2018-04-02T09:14:20.046Z,53.60
2018-04-02T09:16:48.367Z,53.50
2018-04-02T09:19:16.679Z,52.80
2018-04-02T09:21:45.016Z,52.70
2018-04-02T09:24:13.340Z,52.60
2018-04-02T09:26:41.637Z,52.40
2018-04-02T09:29:09.955Z,52.30
2018-04-02T09:31:38.252Z,52.10
2018-04-02T09:34:06.576Z,50.70
2018-04-02T09:36:34.888Z,50.20
2018-04-02T09:39:03.214Z,50.20
2018-04-02T09:41:31.521Z,50.30
2018-04-02T09:43:59.832Z,50.10
2018-04-02T09:46:28.142Z,49.80
2018-04-02T09:48:55.727Z,49.80
2018-04-02T09:51:24.030Z,48.50
2018-04-02T09:53:52.349Z,48.30
2018-04-02T09:56:20.657Z,47.90
2018-04-02T09:58:48.994Z,48.20
2018-04-02T10:01:17.281Z,47.30
2018-04-02T10:03:51.214Z,47.80
2018-04-02T10:06:19.513Z,47.60
2018-04-02T10:08:47.832Z,47.00
2018-04-02T10:11:16.129Z,46.80
2018-04-02T10:13:44.473Z,47.40
2018-04-02T10:16:12.764Z,47.70
2018-04-02T10:18:41.086Z,47.00
2018-04-02T10:21:09.380Z,46.40
2018-04-02T10:23:36.933Z,46.30
2018-04-02T10:26:05.229Z,45.60
2018-04-02T10:28:33.550Z,44.60
2018-04-02T10:31:01.915Z,45.70
2018-04-02T10:33:30.184Z,45.60
2018-04-02T10:35:58.488Z,44.60
2018-04-02T10:38:26.036Z,44.60
2018-04-02T10:40:54.337Z,44.90
2018-04-02T10:43:22.697Z,44.30
2018-04-02T10:45:51.040Z,44.60
2018-04-02T10:48:19.415Z,43.90
2018-04-02T10:50:47.668Z,43.80
2018-04-02T10:53:15.989Z,44.00
2018-04-02T10:55:44.284Z,43.70
2018-04-02T10:58:12.596Z,43.70
2018-04-02T11:00:40.891Z,43.70
2018-04-02T11:03:08.462Z,43.10
2018-04-02T11:05:36.756Z,43.20
2018-04-02T11:08:05.075Z,42.10
2018-04-02T11:10:33.389Z,42.20
2018-04-02T11:13:01.690Z,42.30
2018-04-02T11:15:30.005Z,41.50
2018-04-02T11:17:58.312Z,42.70
2018-04-02T11:20:26.641Z,41.70
2018-04-02T11:22:54.929Z,41.30
2018-04-02T11:25:23.253Z,40.90
2018-04-02T11:27:51.548Z,41.00
2018-04-02T11:30:19.859Z,40.80
2018-04-02T11:32:48.161Z,41.40
2018-04-02T11:35:16.468Z,41.30
2018-04-02T11:37:44.760Z,41.80
2018-04-02T11:40:13.076Z,41.70
2018-04-02T11:42:41.380Z,40.90
2018-04-02T11:45:09.725Z,40.30
2018-04-02T11:47:38.020Z,40.30
2018-04-02T11:50:06.338Z,40.50
2018-04-02T11:52:34.634Z,40.80
2018-04-02T11:55:02.945Z,40.70
2018-04-02T11:57:31.242Z,39.90
2018-04-02T11:59:59.560Z,39.20
2018-04-02T12:02:27.852Z,38.70
2018-04-02T12:04:56.164Z,38.90
2018-04-02T12:07:24.463Z,39.00
2018-04-02T12:09:52.781Z,38.30
2018-04-02T12:12:21.077Z,38.30
2018-04-02T12:14:49.419Z,38.70
2018-04-02T12:17:17.698Z,38.60
2018-04-02T12:19:46.020Z,37.70
2018-04-02T12:22:13.542Z,37.70
2018-04-02T12:24:41.848Z,37.60
2018-04-02T12:27:10.142Z,36.80
2018-04-02T12:29:38.453Z,36.80
2018-04-02T12:32:06.749Z,36.70
2018-04-02T12:34:35.065Z,37.50
2018-04-02T12:37:03.357Z,37.80
2018-04-02T12:39:31.668Z,37.50
2018-04-02T12:41:59.961Z,37.60
2018-04-02T12:44:28.293Z,37.40
2018-04-02T12:46:56.613Z,38.50
2018-04-02T12:49:24.915Z,38.70
2018-04-02T12:51:53.278Z,38.80
2018-04-02T12:54:21.544Z,39.20
2018-04-02T12:56:49.864Z,39.90
2018-04-02T12:59:18.152Z,40.80
2018-04-02T13:01:46.468Z,42.10
2018-04-02T13:04:14.760Z,43.40
2018-04-02T13:06:43.081Z,42.60
2018-04-02T13:09:11.368Z,43.40
2018-04-02T13:11:39.708Z,44.20
2018-04-02T13:14:08.004Z,44.10
2018-04-02T13:16:36.338Z,42.30
2018-04-02T13:19:04.652Z,42.50
2018-04-02T13:21:32.968Z,42.80
2018-04-02T13:24:01.260Z,42.70
2018-04-02T13:26:29.572Z,42.50
2018-04-02T13:28:57.858Z,42.40
2018-04-02T13:31:26.194Z,41.20
2018-04-02T13:33:55.460Z,41.40
2018-04-02T13:36:23.791Z,41.20
2018-04-02T13:38:52.081Z,40.90
2018-04-02T13:41:20.406Z,40.80
2018-04-02T13:43:48.707Z,40.30
2018-04-02T13:46:17.020Z,40.20
2018-04-02T13:48:45.326Z,40.30
2018-04-02T13:51:13.636Z,40.10
2018-04-02T13:53:41.927Z,39.50
2018-04-02T13:56:10.240Z,39.80
2018-04-02T13:58:38.529Z,39.30
2018-04-02T14:01:06.844Z,39.70
2018-04-02T14:03:35.198Z,40.10
2018-04-02T14:06:03.997Z,40.30
2018-04-02T14:08:32.293Z,40.20
2018-04-02T14:11:00.613Z,39.80
2018-04-02T14:13:28.934Z,39.40
2018-04-02T14:15:57.248Z,39.90
2018-04-02T14:18:25.542Z,39.90
2018-04-02T14:20:53.864Z,40.60
2018-04-02T14:23:22.177Z,40.10
2018-04-02T14:25:50.501Z,40.40
2018-04-02T14:28:18.804Z,41.00
2018-04-02T14:30:47.136Z,41.10
2018-04-02T14:33:14.662Z,41.00
2018-04-02T14:35:42.960Z,40.80
2018-04-02T14:38:11.273Z,40.80
2018-04-02T14:40:39.571Z,40.40
2018-04-02T14:43:07.915Z,40.60
2018-04-02T14:45:36.244Z,41.00
2018-04-02T14:48:04.564Z,40.60
2018-04-02T14:50:32.860Z,40.10
2018-04-02T14:53:00.402Z,40.10
2018-04-02T14:55:28.687Z,40.20
2018-04-02T14:57:57.014Z,39.80
2018-04-02T15:00:25.308Z,39.60
2018-04-02T15:02:53.629Z,38.50
2018-04-02T15:05:21.919Z,38.30
2018-04-02T15:07:50.236Z,38.30
2018-04-02T15:10:18.568Z,37.90
2018-04-02T15:12:46.873Z,37.50
2018-04-02T15:15:14.400Z,37.50
2018-04-02T15:17:42.708Z,38.00
2018-04-02T15:20:10.993Z,37.70
2018-04-02T15:22:39.304Z,37.50
2018-04-02T15:25:07.593Z,36.80
2018-04-02T15:27:35.909Z,37.20
2018-04-02T15:30:04.202Z,37.30
2018-04-02T15:32:32.516Z,38.00
2018-04-02T15:35:00.801Z,37.70
2018-04-02T15:37:29.113Z,38.10
2018-04-02T15:39:57.404Z,38.60
2018-04-02T15:42:25.716Z,38.20
2018-04-02T15:44:54.008Z,38.40
2018-04-02T15:47:22.320Z,38.40
2018-04-02T15:49:50.609Z,38.30
2018-04-02T15:52:18.921Z,38.30
2018-04-02T15:54:47.213Z,38.60
2018-04-02T15:57:15.528Z,38.10
2018-04-02T15:59:43.875Z,37.80
2018-04-02T16:02:12.152Z,37.60
2018-04-02T16:04:40.440Z,37.60
2018-04-02T16:07:07.985Z,37.60
2018-04-02T16:09:36.277Z,37.70
2018-04-02T16:12:04.580Z,37.50
2018-04-02T16:14:32.878Z,36.90
2018-04-02T16:17:01.182Z,36.80
2018-04-02T16:19:29.510Z,36.70
2018-04-02T16:21:57.800Z,36.70
2018-04-02T16:24:26.106Z,36.70
2018-04-02T16:26:54.399Z,36.80
2018-04-02T16:29:22.717Z,37.30
2018-04-02T16:31:51.021Z,37.80
2018-04-02T16:34:19.333Z,38.00
2018-04-02T16:36:47.624Z,38.10
2018-04-02T16:39:15.944Z,38.60
2018-04-02T16:41:44.242Z,39.00
2018-04-02T16:44:12.570Z,39.40
2018-04-02T16:46:40.864Z,39.30
2018-04-02T16:49:09.185Z,39.80
2018-04-02T16:51:37.485Z,40.20
2018-04-02T16:54:05.797Z,40.70
2018-04-02T16:56:33.333Z,40.70
2018-04-02T16:59:01.668Z,41.20
2018-04-02T17:01:29.975Z,41.00
2018-04-02T17:03:58.293Z,41.20
2018-04-02T17:06:26.638Z,41.40
2018-04-02T17:08:54.937Z,41.60
2018-04-02T17:11:23.237Z,41.70
2018-04-02T17:13:51.561Z,41.60
2018-04-02T17:16:19.852Z,41.90
2018-04-02T17:18:48.176Z,42.10
2018-04-02T17:21:16.473Z,42.40
2018-04-02T17:23:44.802Z,42.20
2018-04-02T17:26:13.109Z,42.60
2018-04-02T17:28:41.423Z,42.80
2018-04-02T17:31:09.760Z,43.00
2018-04-02T17:33:37.317Z,43.00
2018-04-02T17:36:05.618Z,43.40
2018-04-02T17:38:33.941Z,43.90
2018-04-02T17:41:02.239Z,44.10
2018-04-02T17:43:29.809Z,44.10
2018-04-02T17:45:58.100Z,44.30
2018-04-02T17:48:26.430Z,44.70
2018-04-02T17:50:54.749Z,44.80
2018-04-02T17:53:23.081Z,45.10
2018-04-02T17:55:51.376Z,45.40
2018-04-02T17:58:19.672Z,45.90
2018-04-02T18:00:48.014Z,46.00
2018-04-02T18:03:16.316Z,46.30
2018-04-02T18:05:44.639Z,46.50
2018-04-02T18:08:12.943Z,47.00
2018-04-02T18:10:41.260Z,47.30
2018-04-02T18:13:09.560Z,47.30
2018-04-02T18:15:37.877Z,47.50
2018-04-02T18:18:06.176Z,47.60
2018-04-02T18:20:34.489Z,47.60
2018-04-02T18:23:02.894Z,47.70
2018-04-02T18:25:31.228Z,47.60
2018-04-02T18:27:58.796Z,47.50
2018-04-02T18:30:27.095Z,48.40
2018-04-02T18:32:55.383Z,48.80
2018-04-02T18:35:22.931Z,48.80
2018-04-02T18:37:50.460Z,49.10
2018-04-02T18:40:18.781Z,50.10
2018-04-02T18:42:47.076Z,50.60
2018-04-02T18:45:15.397Z,50.70
2018-04-02T18:47:43.709Z,50.90
2018-04-02T18:50:12.036Z,50.80
2018-04-02T18:52:40.329Z,51.00
2018-04-02T18:55:08.644Z,51.20
2018-04-02T18:57:36.936Z,51.10
2018-04-02T19:00:05.263Z,51.30
2018-04-02T19:02:33.560Z,51.10
2018-04-02T19:05:01.108Z,51.10
2018-04-02T19:07:29.409Z,51.10
2018-04-02T19:09:57.740Z,51.20
2018-04-02T19:12:26.032Z,51.40
2018-04-02T19:14:54.350Z,52.00
2018-04-02T19:17:22.656Z,52.10
2018-04-02T19:19:50.964Z,51.90
2018-04-02T19:22:19.273Z,51.70
2018-04-02T19:24:47.589Z,51.70
2018-04-02T19:27:15.884Z,51.50
2018-04-02T19:29:44.223Z,51.70
2018-04-02T19:32:12.512Z,51.80
2018-04-02T19:34:40.838Z,51.90
2018-04-02T19:37:09.140Z,52.10
2018-04-02T19:39:37.442Z,52.10
2018-04-02T19:42:05.768Z,52.50
2018-04-02T19:44:34.064Z,52.80
2018-04-02T19:47:02.380Z,53.30
2018-04-02T19:49:30.672Z,53.20
2018-04-02T19:51:58.985Z,53.40
2018-04-02T19:54:27.280Z,53.60
2018-04-02T19:56:55.595Z,54.00
2018-04-02T19:59:23.893Z,54.30
2018-04-02T20:01:52.205Z,54.90
2018-04-02T20:04:19.737Z,54.90
2018-04-02T20:06:48.056Z,54.80
2018-04-02T20:09:16.356Z,55.00
2018-04-02T20:11:44.725Z,55.10
2018-04-02T20:14:13.021Z,55.30
2018-04-02T20:16:41.348Z,54.90
2018-04-02T20:19:09.650Z,55.70
2018-04-02T20:21:37.973Z,55.60
2018-04-02T20:24:06.264Z,55.70
2018-04-02T20:26:34.577Z,56.10
2018-04-02T20:29:02.877Z,56.60
2018-04-02T20:31:31.189Z,57.00
2018-04-02T20:33:59.480Z,57.40
2018-04-02T20:36:27.810Z,57.30
2018-04-02T20:38:56.100Z,57.60
2018-04-02T20:41:24.490Z,58.00
2018-04-02T20:43:52.784Z,58.00
2018-04-02T20:46:21.108Z,58.00
2018-04-02T20:48:48.640Z,58.00
2018-04-02T20:51:17.528Z,58.40
2018-04-02T20:53:45.829Z,58.20
2018-04-02T20:56:13.377Z,58.10
2018-04-02T20:58:41.669Z,58.20
2018-04-02T21:01:10.283Z,58.00
2018-04-02T21:03:38.577Z,57.10
2018-04-02T21:06:06.904Z,57.00
2018-04-02T21:08:35.215Z,56.80
2018-04-02T21:11:03.533Z,56.60
2018-04-02T21:13:31.843Z,56.40
2018-04-02T21:16:00.160Z,56.60
2018-04-02T21:18:27.684Z,56.60
2018-04-02T21:20:56.022Z,56.30
2018-04-02T21:23:24.322Z,56.80
2018-04-02T21:25:52.620Z,56.80
2018-04-02T21:28:20.168Z,56.80
2018-04-02T21:30:48.467Z,56.30
2018-04-02T21:33:16.780Z,56.20
2018-04-02T21:35:45.076Z,56.00
2018-04-02T21:38:13.391Z,55.80
2018-04-02T21:40:41.680Z,55.50
2018-04-02T21:43:09.993Z,55.50
2018-04-02T21:45:38.314Z,55.50
2018-04-02T21:48:05.844Z,55.50
2018-04-02T21:50:34.137Z,55.10
2018-04-02T21:53:02.453Z,55.50
2018-04-02T21:55:30.745Z,54.80
2018-04-02T21:57:58.299Z,54.80
2018-04-02T22:00:26.589Z,55.00
2018-04-02T22:02:54.908Z,55.10
2018-04-02T22:05:23.204Z,55.30
2018-04-02T22:07:51.529Z,55.50
2018-04-02T22:10:19.825Z,55.90
2018-04-02T22:12:47.380Z,55.80
2018-04-02T22:15:15.682Z,57.20
2018-04-02T22:17:44.005Z,57.80
2018-04-02T22:20:12.297Z,58.10
2018-04-02T22:22:40.612Z,58.50
2018-04-02T22:25:08.913Z,59.00
2018-04-02T22:27:37.232Z,59.60
2018-04-02T22:30:05.531Z,60.00
2018-04-02T22:32:33.849Z,61.10
2018-04-02T22:35:02.152Z,62.50
2018-04-02T22:37:30.492Z,63.40
2018-04-02T22:39:58.802Z,64.60
2018-04-02T22:42:27.120Z,65.20
2018-04-02T22:44:55.413Z,66.20
2018-04-02T22:47:23.728Z,67.00
2018-04-02T22:49:52.034Z,67.80
2018-04-02T22:52:20.356Z,68.60
2018-04-02T22:54:48.644Z,68.90
2018-04-02T22:57:16.937Z,69.30
2018-04-02T22:59:45.257Z,69.90
2018-04-02T23:02:13.552Z,70.60
2018-04-02T23:04:41.881Z,70.90
2018-04-02T23:07:10.186Z,71.60
2018-04-02T23:09:38.533Z,72.50
2018-04-02T23:12:06.068Z,72.60
2018-04-02T23:14:34.390Z,74.20
2018-04-02T23:17:01.917Z,74.20
2018-04-02T23:19:30.243Z,75.40
2018-04-02T23:21:57.788Z,75.40
2018-04-02T23:24:26.109Z,77.00
2018-04-02T23:26:54.413Z,77.80
2018-04-02T23:29:22.719Z,80.40
2018-04-02T23:31:51.014Z,80.00
2018-04-02T23:34:19.333Z,80.60
2018-04-02T23:36:47.630Z,80.90
2018-04-02T23:39:15.944Z,82.00
2018-04-02T23:41:44.248Z,82.40
2018-04-02T23:44:12.564Z,82.90
2018-04-02T23:46:40.865Z,83.40
2018-04-02T23:49:09.185Z,83.80
2018-04-02T23:51:37.482Z,84.10
2018-04-02T23:54:05.037Z,84.10
2018-04-02T23:56:33.328Z,85.00
2018-04-02T23:59:01.644Z,85.50
